This is the latest recevied weather packets stored in our database for station/object DK6SC-10. If no packets are shown the sender has not sent any weather packets the latest 1 day(s).
| Time | Temp. | Humidity | Pressure | Rain* | Wind** | Luminosity | Snow |
|---|---|---|---|---|---|---|---|
| 1777764745 | 11.67° C | 56% | 980.2 hPa | - | - | - | - |
| 1777762945 | 11.67° C | 55% | 980 hPa | - | - | - | - |
| 1777762045 | 11.67° C | 55% | 980.1 hPa | - | - | - | - |
| 1777761145 | 12.22° C | 53% | 980.1 hPa | - | - | - | - |
| 1777760245 | 12.22° C | 54% | 980.2 hPa | - | - | - | - |
| 1777759345 | 12.78° C | 52% | 980.2 hPa | - | - | - | - |
| 1777758445 | 12.78° C | 51% | 980.3 hPa | - | - | - | - |
| 1777756645 | 13.89° C | 47% | 980.4 hPa | - | - | - | - |
| 1777755745 | 14.44° C | 45% | 980.4 hPa | - | - | - | - |
| 1777754845 | 14.44° C | 43% | 980.5 hPa | - | - | - | - |
| 1777753945 | 15° C | 42% | 980.6 hPa | - | - | - | - |
| 1777753045 | 15° C | 41% | 980.6 hPa | - | - | - | - |
| 1777752145 | 16.11° C | 38% | 980.6 hPa | - | - | - | - |
| 1777751244 | 16.11° C | 39% | 980.7 hPa | - | - | - | - |
| 1777750344 | 16.67° C | 38% | 980.6 hPa | - | - | - | - |
| 1777749444 | 17.78° C | 33% | 980.5 hPa | - | - | - | - |
| 1777748544 | 18.33° C | 30% | 980.5 hPa | - | - | - | - |
| 1777747644 | 18.89° C | 30% | 980.4 hPa | - | - | - | - |
| 1777746744 | 20° C | 25% | 980.3 hPa | - | - | - | - |
| 1777745844 | 21.11° C | 23% | 980.2 hPa | - | - | - | - |
| 1777744944 | 21.67° C | 23% | 980.2 hPa | - | - | - | - |
| 1777744044 | 22.78° C | 20% | 980.3 hPa | - | - | - | - |
| 1777743144 | 24.44° C | 18% | 980.3 hPa | - | - | - | - |
| 1777742244 | 25° C | 16% | 980.4 hPa | - | - | - | - |
| 1777741344 | 25.56° C | 14% | 980.5 hPa | - | - | - | - |
* Rain since midnight (hover to see other rain measurements)
** Current wind speed in m/s (hover to see current wind gust speed)